createdAt,value
2019-06-08T00:02:01.375Z,57.80
2019-06-08T00:04:31.917Z,57.30
2019-06-08T00:07:02.429Z,59.10
2019-06-08T00:09:32.960Z,57.90
2019-06-08T00:12:03.471Z,58.70
2019-06-08T00:14:33.967Z,58.20
2019-06-08T00:17:04.495Z,61.40
2019-06-08T00:19:34.932Z,58.80
2019-06-08T00:22:05.448Z,59.30
2019-06-08T00:24:35.943Z,60.60
2019-06-08T00:27:06.359Z,60.90
2019-06-08T00:29:36.872Z,58.00
2019-06-08T00:32:07.343Z,58.50
2019-06-08T00:34:37.830Z,60.10
2019-06-08T00:37:08.256Z,62.00
2019-06-08T00:39:38.796Z,59.70
2019-06-08T00:42:09.217Z,60.80
2019-06-08T00:44:39.634Z,62.30
2019-06-08T00:47:10.059Z,60.30
2019-06-08T00:49:40.596Z,62.10
2019-06-08T00:52:11.084Z,59.00
2019-06-08T00:54:41.545Z,58.50
2019-06-08T00:57:12.240Z,59.10
2019-06-08T00:59:42.775Z,59.40
2019-06-08T01:02:13.366Z,59.90
2019-06-08T01:04:43.885Z,58.40
2019-06-08T01:07:14.311Z,61.40
2019-06-08T01:09:44.646Z,58.50
2019-06-08T01:12:15.084Z,59.20
2019-06-08T01:14:45.464Z,60.40
2019-06-08T01:17:15.912Z,60.90
2019-06-08T01:19:48.268Z,67.40
2019-06-08T01:22:19.449Z,59.10
2019-06-08T01:24:49.983Z,58.80
2019-06-08T01:27:21.949Z,64.30
2019-06-08T01:29:52.640Z,60.20
2019-06-08T01:32:24.219Z,65.00
2019-06-08T01:34:54.840Z,63.40
2019-06-08T01:37:25.274Z,61.60
2019-06-08T01:39:55.764Z,61.60
2019-06-08T01:42:27.586Z,63.00
2019-06-08T01:44:58.256Z,61.10
2019-06-08T01:47:30.275Z,61.70
2019-06-08T01:50:00.947Z,62.40
2019-06-08T01:52:32.947Z,63.50
2019-06-08T01:55:03.914Z,60.50
2019-06-08T01:57:34.365Z,63.50
2019-06-08T02:00:29.315Z,62.30
2019-06-08T02:02:37.641Z,62.60
2019-06-08T02:05:08.664Z,65.20
2019-06-08T02:07:39.216Z,68.20
2019-06-08T02:10:10.041Z,64.20
2019-06-08T02:12:40.491Z,67.20
2019-06-08T02:15:11.280Z,71.00
2019-06-08T02:17:41.815Z,76.60
2019-06-08T02:20:13.263Z,66.10
2019-06-08T02:22:43.782Z,64.80
2019-06-08T02:25:15.837Z,65.10
2019-06-08T02:27:46.698Z,66.30
2019-06-08T02:30:19.219Z,68.60
2019-06-08T02:32:49.652Z,71.50
2019-06-08T02:35:20.204Z,69.80
2019-06-08T02:37:50.643Z,73.10
2019-06-08T02:40:21.398Z,74.90
2019-06-08T02:42:51.904Z,67.20
2019-06-08T02:45:22.417Z,73.80
2019-06-08T02:47:52.930Z,76.00
2019-06-08T02:50:57.106Z,78.80
2019-06-08T02:53:29.606Z,75.90
2019-06-08T02:56:00.302Z,78.40
2019-06-08T02:58:33.738Z,78.70
2019-06-08T03:01:05.769Z,74.90
2019-06-08T03:03:38.356Z,70.60
2019-06-08T03:06:08.902Z,72.00
2019-06-08T03:08:43.374Z,72.20
2019-06-08T03:11:13.946Z,75.90
2019-06-08T03:13:47.286Z,74.00
2019-06-08T03:16:17.763Z,74.10
2019-06-08T03:18:48.220Z,79.70
2019-06-08T03:21:18.733Z,78.70
2019-06-08T03:23:49.169Z,80.00
2019-06-08T03:26:19.735Z,79.80
2019-06-08T03:28:50.206Z,80.10
2019-06-08T03:31:20.726Z,81.60
2019-06-08T03:33:55.783Z,80.00
2019-06-08T03:36:23.271Z,84.20
2019-06-08T03:38:53.758Z,81.40
2019-06-08T03:41:24.255Z,79.60
2019-06-08T03:43:54.744Z,78.10
2019-06-08T03:46:25.274Z,85.10
2019-06-08T03:48:55.657Z,83.70
2019-06-08T03:51:26.158Z,86.30
2019-06-08T03:53:56.579Z,84.40
2019-06-08T03:56:27.136Z,86.20
2019-06-08T03:58:57.539Z,84.70
2019-06-08T04:01:28.091Z,83.60
2019-06-08T04:04:00.080Z,83.60
2019-06-08T04:06:30.720Z,84.00
2019-06-08T04:09:01.174Z,82.40
2019-06-08T04:11:31.686Z,82.40
2019-06-08T04:14:02.227Z,84.50
2019-06-08T04:16:32.672Z,83.80
2019-06-08T04:19:03.155Z,84.60
2019-06-08T04:21:33.662Z,87.30
2019-06-08T04:24:04.111Z,85.50
2019-06-08T04:26:34.430Z,81.30
2019-06-08T04:29:04.915Z,86.50
2019-06-08T04:31:35.363Z,85.80
2019-06-08T04:34:05.921Z,86.10
2019-06-08T04:36:36.333Z,84.00
2019-06-08T04:39:08.237Z,87.20
2019-06-08T04:41:40.593Z,83.80
2019-06-08T04:44:11.031Z,87.70
2019-06-08T04:46:43.282Z,86.80
2019-06-08T04:49:13.617Z,85.70
2019-06-08T04:51:45.314Z,88.00
2019-06-08T04:54:16.394Z,89.10
2019-06-08T04:56:47.147Z,88.60
2019-06-08T04:59:17.655Z,87.00
2019-06-08T05:01:49.265Z,84.90
2019-06-08T05:04:20.053Z,87.80
2019-06-08T05:06:50.488Z,85.50
2019-06-08T05:09:21.043Z,85.20
2019-06-08T05:11:51.549Z,84.80
2019-06-08T05:14:22.053Z,81.80
2019-06-08T05:16:52.573Z,82.50
2019-06-08T05:19:23.090Z,84.20
2019-06-08T05:21:53.669Z,84.20
2019-06-08T05:24:24.045Z,81.50
2019-06-08T05:26:54.512Z,86.40
2019-06-08T05:29:24.982Z,84.80
2019-06-08T05:31:55.368Z,85.70
2019-06-08T05:34:25.849Z,85.20
2019-06-08T05:36:56.321Z,82.10
2019-06-08T05:39:26.877Z,87.30
2019-06-08T05:41:57.283Z,83.70
2019-06-08T05:44:27.798Z,85.00
2019-06-08T05:46:58.298Z,87.90
2019-06-08T05:49:29.308Z,86.30
2019-06-08T05:51:59.832Z,88.90
2019-06-08T05:54:30.299Z,89.00
2019-06-08T05:57:00.854Z,85.60
2019-06-08T05:59:31.293Z,87.40
2019-06-08T06:02:01.774Z,87.60
2019-06-08T06:04:33.129Z,87.30
2019-06-08T06:07:03.745Z,89.30
2019-06-08T06:09:34.226Z,90.60
2019-06-08T06:12:05.372Z,91.00
2019-06-08T06:14:36.953Z,88.80
2019-06-08T06:17:07.701Z,88.20
2019-06-08T06:19:38.184Z,90.40
2019-06-08T06:22:08.719Z,86.30
2019-06-08T06:24:39.177Z,86.30
2019-06-08T06:27:09.686Z,88.90
2019-06-08T06:29:41.356Z,88.90
2019-06-08T06:32:11.892Z,88.90
2019-06-08T06:34:43.804Z,89.20
2019-06-08T06:37:14.256Z,88.40
2019-06-08T06:39:45.862Z,88.10
2019-06-08T06:42:16.447Z,89.60
2019-06-08T06:44:47.509Z,84.50
2019-06-08T06:47:19.281Z,88.90
2019-06-08T06:49:50.663Z,84.50
2019-06-08T06:52:21.383Z,88.70
2019-06-08T06:54:53.159Z,87.10
2019-06-08T06:57:23.919Z,88.90
2019-06-08T06:59:54.479Z,85.80
2019-06-08T07:02:25.098Z,85.80
2019-06-08T07:04:55.587Z,86.50
2019-06-08T07:07:26.140Z,86.80
2019-06-08T07:09:56.610Z,84.80
2019-06-08T07:12:26.976Z,82.00
2019-06-08T07:14:57.400Z,85.30
2019-06-08T07:17:27.968Z,84.20
2019-06-08T07:19:58.908Z,84.70
2019-06-08T07:22:29.430Z,85.70
2019-06-08T07:24:59.895Z,87.90
2019-06-08T07:27:30.352Z,87.80
2019-06-08T07:30:00.870Z,88.10
2019-06-08T07:32:31.410Z,85.40
2019-06-08T07:35:01.908Z,87.40
2019-06-08T07:37:32.450Z,88.00
2019-06-08T07:40:03.012Z,85.00
2019-06-08T07:42:33.523Z,86.70
2019-06-08T07:45:04.073Z,85.60
2019-06-08T07:47:34.702Z,85.90
2019-06-08T07:50:05.517Z,85.90
2019-06-08T07:52:36.081Z,86.10
2019-06-08T07:55:06.664Z,84.70
2019-06-08T07:57:37.168Z,82.40
2019-06-08T08:00:09.494Z,82.40
2019-06-08T08:02:40.217Z,83.20
2019-06-08T08:05:11.610Z,83.20
2019-06-08T08:07:42.052Z,81.00
2019-06-08T08:10:12.798Z,82.00
2019-06-08T08:12:43.295Z,81.80
2019-06-08T08:15:14.287Z,80.90
2019-06-08T08:17:44.736Z,79.30
2019-06-08T08:20:15.313Z,79.50
2019-06-08T08:22:47.944Z,79.10
2019-06-08T08:25:18.235Z,78.20
2019-06-08T08:27:50.221Z,77.00
2019-06-08T08:30:21.379Z,76.30
2019-06-08T08:32:53.082Z,76.70
2019-06-08T08:35:23.962Z,77.10
2019-06-08T08:37:57.100Z,75.70
2019-06-08T08:40:28.196Z,74.40
2019-06-08T08:43:00.337Z,74.40
2019-06-08T08:45:30.770Z,73.70
2019-06-08T08:48:20.044Z,73.70
2019-06-08T08:50:33.347Z,71.60
2019-06-08T08:53:03.763Z,69.20
2019-06-08T08:55:34.284Z,69.20
2019-06-08T08:58:04.776Z,70.10
2019-06-08T09:00:35.151Z,71.00
2019-06-08T09:03:23.295Z,71.70
2019-06-08T09:05:38.260Z,72.10
2019-06-08T09:08:08.864Z,69.50
2019-06-08T09:10:39.310Z,70.30
2019-06-08T09:13:12.059Z,68.70
2019-06-08T09:15:41.856Z,69.00
2019-06-08T09:18:12.337Z,69.60
2019-06-08T09:20:42.834Z,65.60
2019-06-08T09:23:16.426Z,65.60
2019-06-08T09:25:48.092Z,65.70
2019-06-08T09:28:18.587Z,67.20
2019-06-08T09:30:49.291Z,63.70
2019-06-08T09:33:19.739Z,61.20
2019-06-08T09:35:50.265Z,61.00
2019-06-08T09:38:20.767Z,56.70
2019-06-08T09:40:53.244Z,57.50
2019-06-08T09:43:23.677Z,58.90
2019-06-08T09:45:55.283Z,61.20
2019-06-08T09:48:28.585Z,61.50
2019-06-08T09:51:00.417Z,59.30
2019-06-08T09:53:37.214Z,61.10
2019-06-08T09:56:05.380Z,59.30
2019-06-08T09:58:34.321Z,59.90
2019-06-08T10:01:06.141Z,53.10
2019-06-08T10:03:39.204Z,57.10
2019-06-08T10:06:12.147Z,58.00
2019-06-08T10:08:41.047Z,53.20
2019-06-08T10:11:11.475Z,53.70
2019-06-08T10:13:43.376Z,56.00
2019-06-08T10:16:14.031Z,56.20
2019-06-08T10:18:51.133Z,56.10
2019-06-08T10:21:21.139Z,57.50
2019-06-08T10:23:51.230Z,56.40
2019-06-08T10:26:21.633Z,55.40
2019-06-08T10:28:52.165Z,56.80
2019-06-08T10:31:35.616Z,52.60
2019-06-08T10:33:56.179Z,53.40
2019-06-08T10:36:28.383Z,55.70
2019-06-08T10:39:02.773Z,53.60
2019-06-08T10:41:31.304Z,53.80
2019-06-08T10:44:03.334Z,52.20
2019-06-08T10:46:33.882Z,54.30
2019-06-08T10:49:05.884Z,53.40
2019-06-08T10:51:40.130Z,53.30
2019-06-08T10:54:11.058Z,55.40
2019-06-08T10:56:40.878Z,54.80
2019-06-08T10:59:12.389Z,55.20
2019-06-08T11:01:43.039Z,51.70
2019-06-08T11:04:13.565Z,54.40
2019-06-08T11:06:44.132Z,51.70
2019-06-08T11:09:15.617Z,51.30
2019-06-08T11:11:48.095Z,54.30
2019-06-08T11:14:22.374Z,50.90
2019-06-08T11:16:50.881Z,54.10
2019-06-08T11:19:21.557Z,50.60
2019-06-08T11:21:52.059Z,54.10
2019-06-08T11:24:25.134Z,52.00
2019-06-08T11:26:54.675Z,52.80
2019-06-08T11:29:27.619Z,53.30
2019-06-08T11:31:58.644Z,53.80
2019-06-08T11:34:29.459Z,52.80
2019-06-08T11:37:01.954Z,54.20
2019-06-08T11:39:32.034Z,46.90
2019-06-08T11:42:02.586Z,52.90
2019-06-08T11:44:33.339Z,53.30
2019-06-08T11:47:04.654Z,52.20
2019-06-08T11:49:35.423Z,54.50
2019-06-08T11:52:06.836Z,52.20
2019-06-08T11:54:40.832Z,52.60
2019-06-08T11:57:11.728Z,52.10
2019-06-08T11:59:43.229Z,54.10
2019-06-08T12:02:14.275Z,53.90
2019-06-08T12:04:44.901Z,55.30
2019-06-08T12:07:15.497Z,53.30
2019-06-08T12:09:49.892Z,52.90
2019-06-08T12:12:21.050Z,49.30
2019-06-08T12:14:50.243Z,54.90
2019-06-08T12:17:22.637Z,54.60
2019-06-08T12:19:53.247Z,53.50
2019-06-08T12:22:23.757Z,45.40
2019-06-08T12:24:54.274Z,52.10
2019-06-08T12:27:33.155Z,51.00
2019-06-08T12:29:58.769Z,53.50
2019-06-08T12:32:28.992Z,52.90
2019-06-08T12:35:00.083Z,52.70
2019-06-08T12:37:30.879Z,48.40
2019-06-08T12:40:01.573Z,47.70
2019-06-08T12:42:32.174Z,46.60
2019-06-08T12:45:02.616Z,48.50
2019-06-08T12:47:33.167Z,50.50
2019-06-08T12:50:03.687Z,47.90
2019-06-08T12:52:34.194Z,49.60
2019-06-08T12:55:09.037Z,47.90
2019-06-08T12:57:36.811Z,48.30
2019-06-08T13:00:09.766Z,48.60
2019-06-08T13:02:40.004Z,44.60
2019-06-08T13:05:12.458Z,47.10
2019-06-08T13:07:42.747Z,49.90
2019-06-08T13:10:13.519Z,50.70
2019-06-08T13:12:44.048Z,46.30
2019-06-08T13:15:14.696Z,48.00
2019-06-08T13:17:45.126Z,47.40
2019-06-08T13:20:20.506Z,45.70
2019-06-08T13:22:49.533Z,47.90
2019-06-08T13:25:36.108Z,47.10
2019-06-08T13:27:52.254Z,48.20
2019-06-08T13:30:26.052Z,43.10
2019-06-08T13:32:54.994Z,46.30
2019-06-08T13:35:27.404Z,47.90
2019-06-08T13:37:57.737Z,47.20
2019-06-08T13:40:28.190Z,47.70
2019-06-08T13:42:58.624Z,46.30
2019-06-08T13:45:29.144Z,43.30
2019-06-08T13:47:59.654Z,47.80
2019-06-08T13:50:30.086Z,48.70
2019-06-08T13:53:00.937Z,48.10
2019-06-08T13:55:47.917Z,45.50
2019-06-08T13:58:03.742Z,45.50
2019-06-08T14:00:38.595Z,40.40
2019-06-08T14:03:09.532Z,47.80
2019-06-08T14:05:40.109Z,46.10
2019-06-08T14:08:11.111Z,44.70
2019-06-08T14:10:42.966Z,48.70
2019-06-08T14:13:13.354Z,46.30
2019-06-08T14:15:44.212Z,46.60
2019-06-08T14:18:17.927Z,44.10
2019-06-08T14:20:48.324Z,46.20
2019-06-08T14:23:21.078Z,43.50
2019-06-08T14:25:56.687Z,47.80
2019-06-08T14:28:24.538Z,43.30
2019-06-08T14:30:55.689Z,41.90
2019-06-08T14:33:31.481Z,45.30
2019-06-08T14:35:59.170Z,45.60
2019-06-08T14:38:38.237Z,44.20
2019-06-08T14:41:01.911Z,45.50
2019-06-08T14:43:32.443Z,45.00
2019-06-08T14:46:03.018Z,45.50
2019-06-08T14:48:34.057Z,46.10
2019-06-08T14:51:04.395Z,41.30
2019-06-08T14:53:34.803Z,42.10
2019-06-08T14:56:08.650Z,40.50
2019-06-08T14:58:38.596Z,43.70
2019-06-08T15:01:09.381Z,39.20
2019-06-08T15:03:39.743Z,42.10
2019-06-08T15:06:10.190Z,39.00
2019-06-08T15:08:40.664Z,42.30
2019-06-08T15:11:11.124Z,42.40
2019-06-08T15:13:41.613Z,40.40
2019-06-08T15:16:12.173Z,39.40
2019-06-08T15:18:42.609Z,39.30
2019-06-08T15:21:13.075Z,36.60
2019-06-08T15:23:43.520Z,42.10
2019-06-08T15:26:26.631Z,42.70
2019-06-08T15:28:48.397Z,40.20
2019-06-08T15:31:18.517Z,39.50
2019-06-08T15:33:49.090Z,42.80
2019-06-08T15:36:21.745Z,43.50
2019-06-08T15:38:51.839Z,40.70
2019-06-08T15:41:24.282Z,40.80
2019-06-08T15:43:54.597Z,38.60
2019-06-08T15:46:26.190Z,42.60
2019-06-08T15:48:56.889Z,43.10
2019-06-08T15:51:30.701Z,41.10
2019-06-08T15:53:59.461Z,41.90
2019-06-08T15:56:41.791Z,43.40
2019-06-08T15:59:02.060Z,42.00
2019-06-08T16:01:33.512Z,42.20
2019-06-08T16:04:04.303Z,41.80
2019-06-08T16:06:34.825Z,40.60
2019-06-08T16:09:07.898Z,41.20
2019-06-08T16:11:38.415Z,40.60
2019-06-08T16:14:08.865Z,42.10
2019-06-08T16:16:39.369Z,42.00
2019-06-08T16:19:09.934Z,37.90
2019-06-08T16:21:40.520Z,41.30
2019-06-08T16:24:10.950Z,41.80
2019-06-08T16:26:52.612Z,42.60
2019-06-08T16:29:13.686Z,42.70
2019-06-08T16:31:44.240Z,39.50
2019-06-08T16:34:14.714Z,42.10
2019-06-08T16:36:45.321Z,40.30
2019-06-08T16:39:15.933Z,43.00
2019-06-08T16:41:46.353Z,43.30
2019-06-08T16:44:16.819Z,39.60
2019-06-08T16:46:47.386Z,39.90
2019-06-08T16:49:17.959Z,39.80
2019-06-08T16:51:48.844Z,42.20
2019-06-08T16:54:19.511Z,43.00
2019-06-08T16:56:49.916Z,41.80
2019-06-08T16:59:20.364Z,43.30
2019-06-08T17:01:50.803Z,41.90
2019-06-08T17:04:21.274Z,36.10
2019-06-08T17:06:51.732Z,42.00
2019-06-08T17:09:22.276Z,42.60
2019-06-08T17:11:52.720Z,42.60
2019-06-08T17:14:25.067Z,39.60
2019-06-08T17:16:55.390Z,39.10
2019-06-08T17:19:25.783Z,40.30
2019-06-08T17:21:56.271Z,39.40
2019-06-08T17:24:26.806Z,39.20
2019-06-08T17:26:57.312Z,41.30
2019-06-08T17:29:27.834Z,40.50
2019-06-08T17:31:58.374Z,40.80
2019-06-08T17:34:28.783Z,39.80
2019-06-08T17:36:59.323Z,39.70
2019-06-08T17:39:29.780Z,39.90
2019-06-08T17:42:00.323Z,40.40
2019-06-08T17:44:32.032Z,40.80
2019-06-08T17:47:02.664Z,40.90
2019-06-08T17:49:34.428Z,40.60
2019-06-08T17:52:05.042Z,40.10
2019-06-08T17:54:36.687Z,41.50
2019-06-08T17:57:07.306Z,41.00
2019-06-08T17:59:39.755Z,41.60
2019-06-08T18:02:13.729Z,41.10
2019-06-08T18:04:43.285Z,41.30
2019-06-08T18:07:16.987Z,41.40
2019-06-08T18:09:48.492Z,42.10
2019-06-08T18:12:19.058Z,41.10
2019-06-08T18:14:49.506Z,41.70
2019-06-08T18:17:20.037Z,42.00
2019-06-08T18:19:50.794Z,41.80
2019-06-08T18:22:21.303Z,41.50
2019-06-08T18:24:51.781Z,41.20
2019-06-08T18:27:22.355Z,41.40
2019-06-08T18:29:52.825Z,41.60
2019-06-08T18:32:23.376Z,40.50
2019-06-08T18:34:54.025Z,41.00
2019-06-08T18:37:24.530Z,41.10
2019-06-08T18:39:57.683Z,40.80
2019-06-08T18:42:27.123Z,41.20
2019-06-08T18:44:58.264Z,41.00
2019-06-08T18:47:28.843Z,40.60
2019-06-08T18:49:59.939Z,40.90
2019-06-08T18:52:30.411Z,40.90
2019-06-08T18:55:00.951Z,41.10
2019-06-08T18:57:31.388Z,40.90
2019-06-08T19:00:08.526Z,40.90
2019-06-08T19:02:34.126Z,41.00
2019-06-08T19:05:05.205Z,40.90
2019-06-08T19:07:36.891Z,40.80
2019-06-08T19:10:07.838Z,40.90
2019-06-08T19:12:40.735Z,40.90
2019-06-08T19:15:11.426Z,40.80
2019-06-08T19:17:48.212Z,40.80
2019-06-08T19:20:14.259Z,41.50
2019-06-08T19:22:47.721Z,40.80
2019-06-08T19:25:17.602Z,41.10
2019-06-08T19:27:53.134Z,41.00
2019-06-08T19:30:22.301Z,41.30
2019-06-08T19:32:52.630Z,41.40
2019-06-08T19:35:23.098Z,41.40
2019-06-08T19:37:54.080Z,41.40
2019-06-08T19:40:27.038Z,41.40
2019-06-08T19:43:01.032Z,41.70
2019-06-08T19:45:29.487Z,42.80
2019-06-08T19:47:59.977Z,43.10
2019-06-08T19:50:30.450Z,43.70
2019-06-08T19:53:00.837Z,42.60
2019-06-08T19:55:31.431Z,43.30
2019-06-08T19:58:01.803Z,42.70
2019-06-08T20:00:32.225Z,43.00
2019-06-08T20:03:04.285Z,43.80
2019-06-08T20:05:34.830Z,43.40
2019-06-08T20:08:07.884Z,43.80
2019-06-08T20:10:37.955Z,44.10
2019-06-08T20:13:08.384Z,44.20
2019-06-08T20:15:40.697Z,43.50
2019-06-08T20:18:11.200Z,44.10
2019-06-08T20:20:42.091Z,45.70
2019-06-08T20:23:12.529Z,44.60
2019-06-08T20:25:43.161Z,45.70
2019-06-08T20:28:13.696Z,45.80
2019-06-08T20:30:44.339Z,47.10
2019-06-08T20:33:14.872Z,47.60
2019-06-08T20:35:45.619Z,46.30
2019-06-08T20:38:17.737Z,47.10
2019-06-08T20:40:50.091Z,45.10
2019-06-08T20:43:20.689Z,47.70
2019-06-08T20:45:52.177Z,46.20
2019-06-08T20:48:23.341Z,47.70
2019-06-08T20:50:53.901Z,47.10
2019-06-08T20:53:24.319Z,45.80
2019-06-08T20:55:57.107Z,46.10
2019-06-08T20:58:28.370Z,45.80
2019-06-08T21:00:59.027Z,46.20
2019-06-08T21:03:29.451Z,45.60
2019-06-08T21:05:59.931Z,46.10
2019-06-08T21:08:30.442Z,45.90
2019-06-08T21:11:00.965Z,46.50
2019-06-08T21:13:31.372Z,47.70
2019-06-08T21:16:01.850Z,49.20
2019-06-08T21:18:32.466Z,47.90
2019-06-08T21:21:03.008Z,46.90
2019-06-08T21:23:33.496Z,47.20
2019-06-08T21:26:04.150Z,47.10
2019-06-08T21:28:34.584Z,47.70
2019-06-08T21:31:05.090Z,46.80
2019-06-08T21:33:37.842Z,48.20
2019-06-08T21:36:08.786Z,47.40
2019-06-08T21:38:39.414Z,46.80
2019-06-08T21:41:09.936Z,47.90
2019-06-08T21:43:40.470Z,49.60
2019-06-08T21:46:10.941Z,48.10
2019-06-08T21:48:41.419Z,48.90
2019-06-08T21:51:11.929Z,49.30
2019-06-08T21:53:42.345Z,48.60
2019-06-08T21:56:12.777Z,48.10
2019-06-08T21:58:43.188Z,48.90
2019-06-08T22:01:14.030Z,49.20
2019-06-08T22:03:44.476Z,47.80
2019-06-08T22:06:17.564Z,50.60
2019-06-08T22:08:48.098Z,49.10
2019-06-08T22:11:18.806Z,48.80
2019-06-08T22:13:51.121Z,48.30
2019-06-08T22:16:21.391Z,48.30
2019-06-08T22:18:52.975Z,50.00
2019-06-08T22:21:23.592Z,49.80
2019-06-08T22:23:55.146Z,49.30
2019-06-08T22:26:28.053Z,48.70
2019-06-08T22:29:00.805Z,49.80
2019-06-08T22:31:30.751Z,49.50
2019-06-08T22:34:02.529Z,49.10
2019-06-08T22:36:33.308Z,48.50
2019-06-08T22:39:03.904Z,50.10
2019-06-08T22:41:34.331Z,50.50
2019-06-08T22:44:04.861Z,49.50
2019-06-08T22:46:37.382Z,50.10
2019-06-08T22:49:08.130Z,51.70
2019-06-08T22:51:38.770Z,54.40
2019-06-08T22:54:09.179Z,52.90
2019-06-08T22:56:39.719Z,54.70
2019-06-08T22:59:10.177Z,50.50
2019-06-08T23:01:40.657Z,50.80
2019-06-08T23:04:11.143Z,49.80
2019-06-08T23:06:41.623Z,53.60
2019-06-08T23:09:12.170Z,54.00
2019-06-08T23:11:42.772Z,50.50
2019-06-08T23:14:13.636Z,51.20
2019-06-08T23:16:44.170Z,50.30
2019-06-08T23:19:14.622Z,51.40
2019-06-08T23:21:47.375Z,52.40
2019-06-08T23:24:18.093Z,50.60
2019-06-08T23:26:48.649Z,53.30
2019-06-08T23:29:19.012Z,52.00
2019-06-08T23:31:49.550Z,50.80
2019-06-08T23:34:23.067Z,52.70
2019-06-08T23:36:58.941Z,52.70
2019-06-08T23:39:24.325Z,54.70
2019-06-08T23:41:54.725Z,55.20
2019-06-08T23:44:25.135Z,52.30
2019-06-08T23:46:58.116Z,50.60
2019-06-08T23:49:27.851Z,51.10
2019-06-08T23:52:01.121Z,52.20
2019-06-08T23:54:30.493Z,50.80
2019-06-08T23:57:01.150Z,51.30
2019-06-08T23:59:31.654Z,51.30
